Time;durP1;ratioP1;P1;durP2;ratioP2;P2;SDS_P1;SDS_P2;PMS_P1;PMS_P2;Temp;Humidity;BMP_temperature;BMP_pressure;BME280_temperature;BME280_humidity;BME280_pressure;Samples;Min_cycle;Max_cycle;Signal;HPM_P1;HPM_P2
2022/04/21 00:00:29;;;;;;;6.950001;4.550001;;;;;;;1.87;41.27441;94537.55;;;;
2022/04/21 00:01:31;;;;;;;6.950001;4.550001;;;;;;;1.87;41.27441;94537.55;;;;
2022/04/21 00:02:31;;;;;;;6.950001;4.550001;;;;;;;1.87;41.27441;94537.55;;;;
2022/04/21 00:03:32;;;;;;;6.950001;4.550001;;;;;;;1.87;41.27441;94537.55;;;;
2022/04/21 00:04:33;;;;;;;6.950001;4.550001;;;;;;;1.87;41.27441;94537.55;;;;
2022/04/21 00:05:33;;;;;;;6.950001;4.550001;;;;;;;1.87;41.27441;94537.55;;;;
2022/04/21 00:06:34;;;;;;;7.35;4.85;;;;;;;1.85;41.41992;94540.11;;;;
2022/04/21 00:07:34;;;;;;;7.35;4.85;;;;;;;1.85;41.41992;94540.11;;;;
2022/04/21 00:08:35;;;;;;;7.35;4.85;;;;;;;1.85;41.41992;94540.11;;;;
2022/04/21 00:09:36;;;;;;;7.35;4.85;;;;;;;1.85;41.41992;94540.11;;;;
2022/04/21 00:10:36;;;;;;;7.35;4.85;;;;;;;1.85;41.41992;94540.11;;;;
2022/04/21 00:11:37;;;;;;;7.35;4.85;;;;;;;1.85;41.41992;94540.11;;;;
2022/04/21 00:12:37;;;;;;;7.35;4.85;;;;;;;1.85;41.41992;94540.11;;;;
2022/04/21 00:13:38;;;;;;;7.35;4.85;;;;;;;1.85;41.41992;94540.11;;;;
2022/04/21 00:14:38;;;;;;;7.35;4.85;;;;;;;1.85;41.41992;94540.11;;;;
2022/04/21 00:15:39;;;;;;;7.35;4.85;;;;;;;1.85;41.41992;94540.11;;;;
2022/04/21 00:16:39;;;;;;;7.35;4.85;;;;;;;1.85;41.41992;94540.11;;;;
2022/04/21 00:17:40;;;;;;;5.85;4.35;;;;;;;1.72;41.67285;94528.09;;;;
2022/04/21 00:18:42;;;;;;;5.85;4.35;;;;;;;1.72;41.67285;94528.09;;;;
2022/04/21 00:19:43;;;;;;;5.85;4.35;;;;;;;1.72;41.67285;94528.09;;;;
2022/04/21 00:20:43;;;;;;;5.85;4.35;;;;;;;1.72;41.67285;94528.09;;;;
2022/04/21 00:26:54;;;;;;;5.85;4.35;;;;;;;1.72;41.67285;94528.09;;;;
2022/04/21 00:27:55;;;;;;;7.599999;4.7;;;;;;;1.51;41.96973;94526.4;;;;
2022/04/21 00:28:56;;;;;;;7.599999;4.7;;;;;;;1.51;41.96973;94526.4;;;;
2022/04/21 00:29:56;;;;;;;7.599999;4.7;;;;;;;1.51;41.96973;94526.4;;;;
2022/04/21 00:30:56;;;;;;;7.599999;4.7;;;;;;;1.51;41.96973;94526.4;;;;
2022/04/21 00:31:57;;;;;;;7.599999;4.7;;;;;;;1.51;41.96973;94526.4;;;;
2022/04/21 00:32:58;;;;;;;7.599999;4.7;;;;;;;1.51;41.96973;94526.4;;;;
2022/04/21 00:33:58;;;;;;;7.599999;4.7;;;;;;;1.51;41.96973;94526.4;;;;
2022/04/21 00:34:59;;;;;;;7.599999;4.7;;;;;;;1.51;41.96973;94526.4;;;;
2022/04/21 00:35:59;;;;;;;7.599999;4.7;;;;;;;1.51;41.96973;94526.4;;;;
2022/04/21 00:37:00;;;;;;;7.599999;4.7;;;;;;;1.51;41.96973;94526.4;;;;
2022/04/21 00:38:01;;;;;;;7.599999;4.7;;;;;;;1.51;41.96973;94526.4;;;;
2022/04/21 00:39:01;;;;;;;7.65;4.85;;;;;;;1.33;42.23828;94514.97;;;;
2022/04/21 00:40:03;;;;;;;7.65;4.85;;;;;;;1.33;42.23828;94514.97;;;;
2022/04/21 00:41:04;;;;;;;7.65;4.85;;;;;;;1.33;42.23828;94514.97;;;;
2022/04/21 00:42:04;;;;;;;7.65;4.85;;;;;;;1.33;42.23828;94514.97;;;;
2022/04/21 00:43:05;;;;;;;7.65;4.85;;;;;;;1.33;42.23828;94514.97;;;;
2022/04/21 00:44:06;;;;;;;7.65;4.85;;;;;;;1.33;42.23828;94514.97;;;;
2022/04/21 00:45:06;;;;;;;7.65;4.85;;;;;;;1.33;42.23828;94514.97;;;;
2022/04/21 00:46:08;;;;;;;7.65;4.85;;;;;;;1.33;42.23828;94514.97;;;;
2022/04/21 00:47:13;;;;;;;7.65;4.85;;;;;;;1.33;42.23828;94514.97;;;;
2022/04/21 00:48:14;;;;;;;7.65;4.85;;;;;;;1.33;42.23828;94514.97;;;;
2022/04/21 00:49:14;;;;;;;6.65;4.8;;;;;;;1.15;42.47363;94506.32;;;;
2022/04/21 00:50:17;;;;;;;6.65;4.8;;;;;;;1.15;42.47363;94506.32;;;;
2022/04/21 00:51:19;;;;;;;6.65;4.8;;;;;;;1.15;42.47363;94506.32;;;;
2022/04/21 00:52:21;;;;;;;6.65;4.8;;;;;;;1.15;42.47363;94506.32;;;;
2022/04/21 00:53:22;;;;;;;6.65;4.8;;;;;;;1.15;42.47363;94506.32;;;;
2022/04/21 00:54:23;;;;;;;6.65;4.8;;;;;;;1.15;42.47363;94506.32;;;;
2022/04/21 00:55:24;;;;;;;6.65;4.8;;;;;;;1.15;42.47363;94506.32;;;;
2022/04/21 00:56:25;;;;;;;6.65;4.8;;;;;;;1.15;42.47363;94506.32;;;;
2022/04/21 00:57:26;;;;;;;6.65;4.8;;;;;;;1.15;42.47363;94506.32;;;;
2022/04/21 00:58:27;;;;;;;6.65;4.8;;;;;;;1.15;42.47363;94506.32;;;;
2022/04/21 00:59:29;;;;;;;6.65;4.8;;;;;;;1.15;42.47363;94506.32;;;;
2022/04/21 01:00:30;;;;;;;7.1;4.550001;;;;;;;0.98;42.70996;94506.73;;;;
2022/04/21 01:06:47;;;;;;;7.1;4.550001;;;;;;;0.98;42.70996;94506.73;;;;
2022/04/21 01:07:49;;;;;;;7.1;4.550001;;;;;;;0.98;42.70996;94506.73;;;;
2022/04/21 01:08:50;;;;;;;7.1;4.550001;;;;;;;0.98;42.70996;94506.73;;;;
2022/04/21 01:09:50;;;;;;;7.1;4.550001;;;;;;;0.98;42.70996;94506.73;;;;
2022/04/21 01:10:54;;;;;;;6.699999;4.9;;;;;;;0.86;42.92969;94499.94;;;;
2022/04/21 01:11:54;;;;;;;6.699999;4.9;;;;;;;0.86;42.92969;94499.94;;;;
2022/04/21 01:12:55;;;;;;;6.699999;4.9;;;;;;;0.86;42.92969;94499.94;;;;
2022/04/21 01:13:56;;;;;;;6.699999;4.9;;;;;;;0.86;42.92969;94499.94;;;;
2022/04/21 01:14:56;;;;;;;6.699999;4.9;;;;;;;0.86;42.92969;94499.94;;;;
2022/04/21 01:15:57;;;;;;;6.699999;4.9;;;;;;;0.86;42.92969;94499.94;;;;
2022/04/21 01:16:57;;;;;;;6.699999;4.9;;;;;;;0.86;42.92969;94499.94;;;;
2022/04/21 01:17:59;;;;;;;6.699999;4.9;;;;;;;0.86;42.92969;94499.94;;;;
2022/04/21 01:19:00;;;;;;;6.699999;4.9;;;;;;;0.86;42.92969;94499.94;;;;
2022/04/21 01:20:00;;;;;;;6.699999;4.9;;;;;;;0.86;42.92969;94499.94;;;;
2022/04/21 01:21:02;;;;;;;7.300001;4.6;;;;;;;0.76;43.17383;94488.33;;;;
2022/04/21 01:22:03;;;;;;;7.300001;4.6;;;;;;;0.76;43.17383;94488.33;;;;
2022/04/21 01:23:03;;;;;;;7.300001;4.6;;;;;;;0.76;43.17383;94488.33;;;;
2022/04/21 01:24:04;;;;;;;7.300001;4.6;;;;;;;0.76;43.17383;94488.33;;;;
2022/04/21 01:25:06;;;;;;;7.300001;4.6;;;;;;;0.76;43.17383;94488.33;;;;
2022/04/21 01:26:07;;;;;;;7.300001;4.6;;;;;;;0.76;43.17383;94488.33;;;;
2022/04/21 01:27:08;;;;;;;7.300001;4.6;;;;;;;0.76;43.17383;94488.33;;;;
2022/04/21 01:28:09;;;;;;;7.300001;4.6;;;;;;;0.76;43.17383;94488.33;;;;
2022/04/21 01:29:09;;;;;;;7.300001;4.6;;;;;;;0.76;43.17383;94488.33;;;;
2022/04/21 01:30:10;;;;;;;7.300001;4.6;;;;;;;0.76;43.17383;94488.33;;;;
2022/04/21 01:31:12;;;;;;;7.300001;4.6;;;;;;;0.76;43.17383;94488.33;;;;
2022/04/21 01:32:13;;;;;;;6.249999;4.75;;;;;;;0.73;43.32813;94500.27;;;;
2022/04/21 01:33:13;;;;;;;6.249999;4.75;;;;;;;0.73;43.32813;94500.27;;;;
2022/04/21 01:34:14;;;;;;;6.249999;4.75;;;;;;;0.73;43.32813;94500.27;;;;
2022/04/21 01:35:14;;;;;;;6.249999;4.75;;;;;;;0.73;43.32813;94500.27;;;;
2022/04/21 01:36:16;;;;;;;6.249999;4.75;;;;;;;0.73;43.32813;94500.27;;;;
2022/04/21 01:42:30;;;;;;;7.4;4.5;;;;;;;0.79;43.42871;94494.67;;;;
2022/04/21 01:43:30;;;;;;;7.4;4.5;;;;;;;0.79;43.42871;94494.67;;;;
2022/04/21 01:44:31;;;;;;;7.4;4.5;;;;;;;0.79;43.42871;94494.67;;;;
2022/04/21 01:45:31;;;;;;;7.4;4.5;;;;;;;0.79;43.42871;94494.67;;;;
2022/04/21 01:46:32;;;;;;;7.4;4.5;;;;;;;0.79;43.42871;94494.67;;;;
2022/04/21 01:47:33;;;;;;;7.4;4.5;;;;;;;0.79;43.42871;94494.67;;;;
2022/04/21 01:48:34;;;;;;;7.4;4.5;;;;;;;0.79;43.42871;94494.67;;;;
2022/04/21 01:49:34;;;;;;;7.4;4.5;;;;;;;0.79;43.42871;94494.67;;;;
2022/04/21 01:50:35;;;;;;;7.4;4.5;;;;;;;0.79;43.42871;94494.67;;;;
2022/04/21 01:51:35;;;;;;;7.4;4.5;;;;;;;0.79;43.42871;94494.67;;;;
2022/04/21 01:52:36;;;;;;;7.4;4.5;;;;;;;0.79;43.42871;94494.67;;;;
2022/04/21 01:53:37;;;;;;;7.25;5;;;;;;;0.78;43.52344;94487.62;;;;
2022/04/21 01:54:37;;;;;;;7.25;5;;;;;;;0.78;43.52344;94487.62;;;;
2022/04/21 01:55:38;;;;;;;7.25;5;;;;;;;0.78;43.52344;94487.62;;;;
2022/04/21 01:56:39;;;;;;;7.25;5;;;;;;;0.78;43.52344;94487.62;;;;
2022/04/21 01:57:39;;;;;;;7.25;5;;;;;;;0.78;43.52344;94487.62;;;;
2022/04/21 01:58:40;;;;;;;7.25;5;;;;;;;0.78;43.52344;94487.62;;;;
2022/04/21 01:59:41;;;;;;;7.25;5;;;;;;;0.78;43.52344;94487.62;;;;
2022/04/21 02:00:42;;;;;;;7.25;5;;;;;;;0.78;43.52344;94487.62;;;;
2022/04/21 02:01:42;;;;;;;7.25;5;;;;;;;0.78;43.52344;94487.62;;;;
2022/04/21 02:02:43;;;;;;;7.25;5;;;;;;;0.78;43.52344;94487.62;;;;
2022/04/21 02:03:43;;;;;;;6.3;4.95;;;;;;;0.65;43.7627;94487.66;;;;
2022/04/21 02:04:44;;;;;;;6.3;4.95;;;;;;;0.65;43.7627;94487.66;;;;
2022/04/21 02:05:44;;;;;;;6.3;4.95;;;;;;;0.65;43.7627;94487.66;;;;
2022/04/21 02:06:45;;;;;;;6.3;4.95;;;;;;;0.65;43.7627;94487.66;;;;
2022/04/21 02:07:45;;;;;;;6.3;4.95;;;;;;;0.65;43.7627;94487.66;;;;
2022/04/21 02:08:46;;;;;;;6.3;4.95;;;;;;;0.65;43.7627;94487.66;;;;
2022/04/21 02:09:47;;;;;;;6.3;4.95;;;;;;;0.65;43.7627;94487.66;;;;
2022/04/21 02:10:47;;;;;;;6.3;4.95;;;;;;;0.65;43.7627;94487.66;;;;
2022/04/21 02:11:49;;;;;;;6.3;4.95;;;;;;;0.65;43.7627;94487.66;;;;
2022/04/21 02:12:49;;;;;;;6.3;4.95;;;;;;;0.65;43.7627;94487.66;;;;
2022/04/21 02:13:50;;;;;;;6.3;4.95;;;;;;;0.65;43.7627;94487.66;;;;
2022/04/21 02:14:51;;;;;;;6.15;4.8;;;;;;;0.52;44.06641;94476.44;;;;
2022/04/21 02:15:52;;;;;;;6.15;4.8;;;;;;;0.52;44.06641;94476.44;;;;
2022/04/21 02:16:52;;;;;;;6.15;4.8;;;;;;;0.52;44.06641;94476.44;;;;
2022/04/21 02:17:53;;;;;;;6.15;4.8;;;;;;;0.52;44.06641;94476.44;;;;
2022/04/21 02:18:53;;;;;;;6.15;4.8;;;;;;;0.52;44.06641;94476.44;;;;
2022/04/21 02:19:54;;;;;;;6.15;4.8;;;;;;;0.52;44.06641;94476.44;;;;
2022/04/21 02:20:54;;;;;;;6.15;4.8;;;;;;;0.52;44.06641;94476.44;;;;
2022/04/21 02:21:55;;;;;;;6.15;4.8;;;;;;;0.52;44.06641;94476.44;;;;
2022/04/21 02:22:55;;;;;;;6.15;4.8;;;;;;;0.52;44.06641;94476.44;;;;
2022/04/21 02:23:56;;;;;;;6.15;4.8;;;;;;;0.52;44.06641;94476.44;;;;
2022/04/21 02:24:56;;;;;;;6.15;4.8;;;;;;;0.52;44.06641;94476.44;;;;
2022/04/21 02:25:56;;;;;;;6.199999;4.799999;;;;;;;0.44;44.26855;94475.25;;;;
2022/04/21 02:26:57;;;;;;;6.199999;4.799999;;;;;;;0.44;44.26855;94475.25;;;;
2022/04/21 02:27:57;;;;;;;6.199999;4.799999;;;;;;;0.44;44.26855;94475.25;;;;
2022/04/21 02:28:58;;;;;;;6.199999;4.799999;;;;;;;0.44;44.26855;94475.25;;;;
2022/04/21 02:29:59;;;;;;;6.199999;4.799999;;;;;;;0.44;44.26855;94475.25;;;;
2022/04/21 02:30:59;;;;;;;6.199999;4.799999;;;;;;;0.44;44.26855;94475.25;;;;
2022/04/21 02:32:01;;;;;;;6.199999;4.799999;;;;;;;0.44;44.26855;94475.25;;;;
2022/04/21 02:33:02;;;;;;;6.199999;4.799999;;;;;;;0.44;44.26855;94475.25;;;;
2022/04/21 02:34:03;;;;;;;6.199999;4.799999;;;;;;;0.44;44.26855;94475.25;;;;
2022/04/21 02:35:03;;;;;;;6.199999;4.799999;;;;;;;0.44;44.26855;94475.25;;;;
2022/04/21 02:36:05;;;;;;;6.8;4.9;;;;;;;0.4;44.46484;94470.01;;;;
2022/04/21 02:37:06;;;;;;;6.8;4.9;;;;;;;0.4;44.46484;94470.01;;;;
2022/04/21 02:38:06;;;;;;;6.8;4.9;;;;;;;0.4;44.46484;94470.01;;;;
2022/04/21 02:39:07;;;;;;;6.8;4.9;;;;;;;0.4;44.46484;94470.01;;;;
2022/04/21 02:40:07;;;;;;;6.8;4.9;;;;;;;0.4;44.46484;94470.01;;;;
2022/04/21 02:41:10;;;;;;;6.8;4.9;;;;;;;0.4;44.46484;94470.01;;;;
2022/04/21 02:42:11;;;;;;;6.8;4.9;;;;;;;0.4;44.46484;94470.01;;;;
2022/04/21 02:43:11;;;;;;;6.8;4.9;;;;;;;0.4;44.46484;94470.01;;;;
2022/04/21 02:44:12;;;;;;;6.8;4.9;;;;;;;0.4;44.46484;94470.01;;;;
2022/04/21 02:45:12;;;;;;;6.8;4.9;;;;;;;0.4;44.46484;94470.01;;;;
2022/04/21 02:46:13;;;;;;;6.8;4.9;;;;;;;0.4;44.46484;94470.01;;;;
2022/04/21 02:47:14;;;;;;;7.25;5.55;;;;;;;0.33;44.60449;94467.41;;;;
2022/04/21 02:48:16;;;;;;;7.25;5.55;;;;;;;0.33;44.60449;94467.41;;;;
2022/04/21 02:49:16;;;;;;;7.25;5.55;;;;;;;0.33;44.60449;94467.41;;;;
2022/04/21 02:50:17;;;;;;;7.25;5.55;;;;;;;0.33;44.60449;94467.41;;;;
2022/04/21 02:51:19;;;;;;;7.25;5.55;;;;;;;0.33;44.60449;94467.41;;;;
2022/04/21 02:52:20;;;;;;;7.25;5.55;;;;;;;0.33;44.60449;94467.41;;;;
2022/04/21 02:57:19;;;;;;;7.25;5.55;;;;;;;0.33;44.60449;94467.41;;;;
2022/04/21 02:58:22;;;;;;;6.550001;5.25;;;;;;;0.16;44.90332;94464.62;;;;
2022/04/21 02:59:24;;;;;;;6.550001;5.25;;;;;;;0.16;44.90332;94464.62;;;;
2022/04/21 03:00:25;;;;;;;6.550001;5.25;;;;;;;0.16;44.90332;94464.62;;;;
2022/04/21 03:01:26;;;;;;;6.550001;5.25;;;;;;;0.16;44.90332;94464.62;;;;
2022/04/21 03:02:26;;;;;;;6.550001;5.25;;;;;;;0.16;44.90332;94464.62;;;;
2022/04/21 03:03:27;;;;;;;6.550001;5.25;;;;;;;0.16;44.90332;94464.62;;;;
2022/04/21 03:04:27;;;;;;;6.550001;5.25;;;;;;;0.16;44.90332;94464.62;;;;
2022/04/21 03:05:28;;;;;;;6.550001;5.25;;;;;;;0.16;44.90332;94464.62;;;;
2022/04/21 03:06:29;;;;;;;6.550001;5.25;;;;;;;0.16;44.90332;94464.62;;;;
2022/04/21 03:07:29;;;;;;;6.550001;5.25;;;;;;;0.16;44.90332;94464.62;;;;
2022/04/21 03:08:29;;;;;;;6.95;5.199999;;;;;;;0.01;45.18262;94460.43;;;;
2022/04/21 03:09:32;;;;;;;6.95;5.199999;;;;;;;0.01;45.18262;94460.43;;;;
2022/04/21 03:10:32;;;;;;;6.95;5.199999;;;;;;;0.01;45.18262;94460.43;;;;
2022/04/21 03:11:33;;;;;;;6.95;5.199999;;;;;;;0.01;45.18262;94460.43;;;;
2022/04/21 03:12:33;;;;;;;6.95;5.199999;;;;;;;0.01;45.18262;94460.43;;;;
2022/04/21 03:13:34;;;;;;;6.95;5.199999;;;;;;;0.01;45.18262;94460.43;;;;
2022/04/21 03:14:34;;;;;;;6.95;5.199999;;;;;;;0.01;45.18262;94460.43;;;;
2022/04/21 03:15:35;;;;;;;6.95;5.199999;;;;;;;0.01;45.18262;94460.43;;;;
2022/04/21 03:16:36;;;;;;;6.95;5.199999;;;;;;;0.01;45.18262;94460.43;;;;
2022/04/21 03:17:36;;;;;;;6.95;5.199999;;;;;;;0.01;45.18262;94460.43;;;;
2022/04/21 03:18:37;;;;;;;7.85;5.15;;;;;;;0.03;45.34277;94454.44;;;;
2022/04/21 03:19:37;;;;;;;7.85;5.15;;;;;;;0.03;45.34277;94454.44;;;;
2022/04/21 03:25:50;;;;;;;7.85;5.15;;;;;;;0.03;45.34277;94454.44;;;;
2022/04/21 03:26:51;;;;;;;7.85;5.15;;;;;;;0.03;45.34277;94454.44;;;;
2022/04/21 03:27:53;;;;;;;7.85;5.15;;;;;;;0.03;45.34277;94454.44;;;;
2022/04/21 03:28:53;;;;;;;7.85;5.15;;;;;;;0.03;45.34277;94454.44;;;;
2022/04/21 03:29:54;;;;;;;7.200001;4.75;;;;;;;0.12;45.37402;94450.12;;;;
2022/04/21 03:30:54;;;;;;;7.200001;4.75;;;;;;;0.12;45.37402;94450.12;;;;
2022/04/21 03:31:55;;;;;;;7.200001;4.75;;;;;;;0.12;45.37402;94450.12;;;;
2022/04/21 03:32:55;;;;;;;7.200001;4.75;;;;;;;0.12;45.37402;94450.12;;;;
2022/04/21 03:33:56;;;;;;;7.200001;4.75;;;;;;;0.12;45.37402;94450.12;;;;
2022/04/21 03:34:56;;;;;;;7.200001;4.75;;;;;;;0.12;45.37402;94450.12;;;;
2022/04/21 03:35:57;;;;;;;7.200001;4.75;;;;;;;0.12;45.37402;94450.12;;;;
2022/04/21 03:36:57;;;;;;;7.200001;4.75;;;;;;;0.12;45.37402;94450.12;;;;
2022/04/21 03:37:58;;;;;;;7.200001;4.75;;;;;;;0.12;45.37402;94450.12;;;;
2022/04/21 03:38:58;;;;;;;7.200001;4.75;;;;;;;0.12;45.37402;94450.12;;;;
2022/04/21 03:39:58;;;;;;;6.85;4.8;;;;;;;0.14;45.48047;94445.95;;;;
2022/04/21 03:40:59;;;;;;;6.85;4.8;;;;;;;0.14;45.48047;94445.95;;;;
2022/04/21 03:42:01;;;;;;;6.85;4.8;;;;;;;0.14;45.48047;94445.95;;;;
2022/04/21 03:43:03;;;;;;;6.85;4.8;;;;;;;0.14;45.48047;94445.95;;;;
2022/04/21 03:44:04;;;;;;;6.85;4.8;;;;;;;0.14;45.48047;94445.95;;;;
2022/04/21 03:45:04;;;;;;;6.85;4.8;;;;;;;0.14;45.48047;94445.95;;;;
2022/04/21 03:46:06;;;;;;;6.85;4.8;;;;;;;0.14;45.48047;94445.95;;;;
2022/04/21 03:47:07;;;;;;;6.85;4.8;;;;;;;0.14;45.48047;94445.95;;;;
2022/04/21 03:48:08;;;;;;;6.85;4.8;;;;;;;0.14;45.48047;94445.95;;;;
2022/04/21 03:49:08;;;;;;;6.85;4.8;;;;;;;0.14;45.48047;94445.95;;;;
2022/04/21 03:50:09;;;;;;;6.85;4.8;;;;;;;0.14;45.48047;94445.95;;;;
2022/04/21 03:51:10;;;;;;;7.599999;5.05;;;;;;;0.19;45.71777;94439.54;;;;
2022/04/21 03:52:10;;;;;;;7.599999;5.05;;;;;;;0.19;45.71777;94439.54;;;;
2022/04/21 03:53:11;;;;;;;7.599999;5.05;;;;;;;0.19;45.71777;94439.54;;;;
2022/04/21 03:54:11;;;;;;;7.599999;5.05;;;;;;;0.19;45.71777;94439.54;;;;
2022/04/21 03:55:12;;;;;;;7.599999;5.05;;;;;;;0.19;45.71777;94439.54;;;;
2022/04/21 03:56:12;;;;;;;7.599999;5.05;;;;;;;0.19;45.71777;94439.54;;;;
2022/04/21 03:57:13;;;;;;;7.599999;5.05;;;;;;;0.19;45.71777;94439.54;;;;
2022/04/21 03:58:13;;;;;;;7.599999;5.05;;;;;;;0.19;45.71777;94439.54;;;;
2022/04/21 03:59:14;;;;;;;7.599999;5.05;;;;;;;0.19;45.71777;94439.54;;;;
2022/04/21 04:00:14;;;;;;;7.599999;5.05;;;;;;;0.19;45.71777;94439.54;;;;
2022/04/21 04:01:15;;;;;;;7.5;5;;;;;;;0.27;45.82031;94435.82;;;;
2022/04/21 04:02:16;;;;;;;7.5;5;;;;;;;0.27;45.82031;94435.82;;;;
2022/04/21 04:03:16;;;;;;;7.5;5;;;;;;;0.27;45.82031;94435.82;;;;
2022/04/21 04:04:17;;;;;;;7.5;5;;;;;;;0.27;45.82031;94435.82;;;;
2022/04/21 04:05:17;;;;;;;7.5;5;;;;;;;0.27;45.82031;94435.82;;;;
2022/04/21 04:11:29;;;;;;;7.5;5;;;;;;;0.27;45.82031;94435.82;;;;
2022/04/21 04:12:30;;;;;;;8.400001;5.25;;;;;;;0.29;45.98047;94432.99;;;;
2022/04/21 04:13:32;;;;;;;8.400001;5.25;;;;;;;0.29;45.98047;94432.99;;;;
2022/04/21 04:14:33;;;;;;;8.400001;5.25;;;;;;;0.29;45.98047;94432.99;;;;
2022/04/21 04:15:33;;;;;;;8.400001;5.25;;;;;;;0.29;45.98047;94432.99;;;;
2022/04/21 04:16:34;;;;;;;8.400001;5.25;;;;;;;0.29;45.98047;94432.99;;;;
2022/04/21 04:17:35;;;;;;;8.400001;5.25;;;;;;;0.29;45.98047;94432.99;;;;
2022/04/21 04:18:35;;;;;;;8.400001;5.25;;;;;;;0.29;45.98047;94432.99;;;;
2022/04/21 04:19:36;;;;;;;8.400001;5.25;;;;;;;0.29;45.98047;94432.99;;;;
2022/04/21 04:20:36;;;;;;;8.400001;5.25;;;;;;;0.29;45.98047;94432.99;;;;
2022/04/21 04:21:37;;;;;;;8.400001;5.25;;;;;;;0.29;45.98047;94432.99;;;;
2022/04/21 04:22:40;;;;;;;6.300001;4.849999;;;;;;;0.32;46.11035;94429.03;;;;
2022/04/21 04:23:40;;;;;;;6.300001;4.849999;;;;;;;0.32;46.11035;94429.03;;;;
2022/04/21 04:24:40;;;;;;;6.300001;4.849999;;;;;;;0.32;46.11035;94429.03;;;;
2022/04/21 04:25:43;;;;;;;6.300001;4.849999;;;;;;;0.32;46.11035;94429.03;;;;
2022/04/21 04:26:44;;;;;;;6.300001;4.849999;;;;;;;0.32;46.11035;94429.03;;;;
2022/04/21 04:27:44;;;;;;;6.300001;4.849999;;;;;;;0.32;46.11035;94429.03;;;;
2022/04/21 04:28:44;;;;;;;6.300001;4.849999;;;;;;;0.32;46.11035;94429.03;;;;
2022/04/21 04:29:45;;;;;;;6.300001;4.849999;;;;;;;0.32;46.11035;94429.03;;;;
2022/04/21 04:30:45;;;;;;;6.300001;4.849999;;;;;;;0.32;46.11035;94429.03;;;;
2022/04/21 04:31:46;;;;;;;6.300001;4.849999;;;;;;;0.32;46.11035;94429.03;;;;
2022/04/21 04:32:46;;;;;;;6.300001;4.849999;;;;;;;0.32;46.11035;94429.03;;;;
2022/04/21 04:33:47;;;;;;;8.849999;5.299999;;;;;;;0.46;46.2002;94426.26;;;;
2022/04/21 04:34:47;;;;;;;8.849999;5.299999;;;;;;;0.46;46.2002;94426.26;;;;
2022/04/21 04:35:48;;;;;;;8.849999;5.299999;;;;;;;0.46;46.2002;94426.26;;;;
2022/04/21 04:36:48;;;;;;;8.849999;5.299999;;;;;;;0.46;46.2002;94426.26;;;;
2022/04/21 04:37:48;;;;;;;8.849999;5.299999;;;;;;;0.46;46.2002;94426.26;;;;
2022/04/21 04:38:49;;;;;;;8.849999;5.299999;;;;;;;0.46;46.2002;94426.26;;;;
2022/04/21 04:39:50;;;;;;;8.849999;5.299999;;;;;;;0.46;46.2002;94426.26;;;;
2022/04/21 04:40:50;;;;;;;8.849999;5.299999;;;;;;;0.46;46.2002;94426.26;;;;
2022/04/21 04:42:23;;;;;;;8.849999;5.299999;;;;;;;0.46;46.2002;94426.26;;;;
2022/04/21 04:43:23;;;;;;;8.849999;5.299999;;;;;;;0.46;46.2002;94426.26;;;;
2022/04/21 04:44:23;;;;;;;9.4;5.45;;;;;;;0.73;46.23926;94422.4;;;;
2022/04/21 04:50:34;;;;;;;9.4;5.45;;;;;;;0.73;46.23926;94422.4;;;;
2022/04/21 04:51:35;;;;;;;9.4;5.45;;;;;;;0.73;46.23926;94422.4;;;;
2022/04/21 04:52:37;;;;;;;9.4;5.45;;;;;;;0.73;46.23926;94422.4;;;;
2022/04/21 04:53:38;;;;;;;9.4;5.45;;;;;;;0.73;46.23926;94422.4;;;;
2022/04/21 04:54:38;;;;;;;8.400001;5.95;;;;;;;1.26;46.09766;94425.97;;;;
2022/04/21 04:55:38;;;;;;;8.400001;5.95;;;;;;;1.26;46.09766;94425.97;;;;
2022/04/21 04:56:39;;;;;;;8.400001;5.95;;;;;;;1.26;46.09766;94425.97;;;;
2022/04/21 04:57:41;;;;;;;8.400001;5.95;;;;;;;1.26;46.09766;94425.97;;;;
2022/04/21 04:58:43;;;;;;;8.400001;5.95;;;;;;;1.26;46.09766;94425.97;;;;
2022/04/21 04:59:43;;;;;;;8.400001;5.95;;;;;;;1.26;46.09766;94425.97;;;;
2022/04/21 05:00:43;;;;;;;8.400001;5.95;;;;;;;1.26;46.09766;94425.97;;;;
2022/04/21 05:01:46;;;;;;;8.400001;5.95;;;;;;;1.26;46.09766;94425.97;;;;
2022/04/21 05:02:47;;;;;;;8.400001;5.95;;;;;;;1.26;46.09766;94425.97;;;;
2022/04/21 05:03:48;;;;;;;8.400001;5.95;;;;;;;1.26;46.09766;94425.97;;;;
2022/04/21 05:04:48;;;;;;;8.400001;5.95;;;;;;;1.26;46.09766;94425.97;;;;
2022/04/21 05:05:49;;;;;;;9.65;6.249999;;;;;;;1.85;45.83301;94423.44;;;;
2022/04/21 05:06:50;;;;;;;9.65;6.249999;;;;;;;1.85;45.83301;94423.44;;;;
2022/04/21 05:07:52;;;;;;;9.65;6.249999;;;;;;;1.85;45.83301;94423.44;;;;
2022/04/21 05:08:52;;;;;;;9.65;6.249999;;;;;;;1.85;45.83301;94423.44;;;;
2022/04/21 05:09:54;;;;;;;9.65;6.249999;;;;;;;1.85;45.83301;94423.44;;;;
2022/04/21 05:10:55;;;;;;;9.65;6.249999;;;;;;;1.85;45.83301;94423.44;;;;
2022/04/21 05:11:55;;;;;;;9.65;6.249999;;;;;;;1.85;45.83301;94423.44;;;;
2022/04/21 05:12:56;;;;;;;9.65;6.249999;;;;;;;1.85;45.83301;94423.44;;;;
2022/04/21 05:13:56;;;;;;;9.65;6.249999;;;;;;;1.85;45.83301;94423.44;;;;
2022/04/21 05:14:58;;;;;;;9.65;6.249999;;;;;;;1.85;45.83301;94423.44;;;;
2022/04/21 05:15:58;;;;;;;16.7;6.7;;;;;;;2.44;45.65332;94419.31;;;;
2022/04/21 05:16:59;;;;;;;16.7;6.7;;;;;;;2.44;45.65332;94419.31;;;;
2022/04/21 05:17:59;;;;;;;16.7;6.7;;;;;;;2.44;45.65332;94419.31;;;;
2022/04/21 05:19:00;;;;;;;16.7;6.7;;;;;;;2.44;45.65332;94419.31;;;;
2022/04/21 05:20:01;;;;;;;16.7;6.7;;;;;;;2.44;45.65332;94419.31;;;;
2022/04/21 05:21:03;;;;;;;16.7;6.7;;;;;;;2.44;45.65332;94419.31;;;;
2022/04/21 05:22:04;;;;;;;16.7;6.7;;;;;;;2.44;45.65332;94419.31;;;;
2022/04/21 05:23:05;;;;;;;16.7;6.7;;;;;;;2.44;45.65332;94419.31;;;;
2022/04/21 05:24:07;;;;;;;16.7;6.7;;;;;;;2.44;45.65332;94419.31;;;;
2022/04/21 05:25:09;;;;;;;16.7;6.7;;;;;;;2.44;45.65332;94419.31;;;;
2022/04/21 05:26:11;;;;;;;16.7;6.7;;;;;;;2.44;45.65332;94419.31;;;;
2022/04/21 05:27:12;;;;;;;8.450001;5.799999;;;;;;;3.02;45.52344;94419.23;;;;
2022/04/21 05:28:13;;;;;;;8.450001;5.799999;;;;;;;3.02;45.52344;94419.23;;;;
2022/04/21 05:34:28;;;;;;;8.450001;5.799999;;;;;;;3.02;45.52344;94419.23;;;;
2022/04/21 05:35:30;;;;;;;8.450001;5.799999;;;;;;;3.02;45.52344;94419.23;;;;
2022/04/21 05:36:31;;;;;;;8.450001;5.799999;;;;;;;3.02;45.52344;94419.23;;;;
2022/04/21 05:37:35;;;;;;;10.65;6;;;;;;;3.62;45.35352;94425.5;;;;
2022/04/21 05:38:37;;;;;;;10.65;6;;;;;;;3.62;45.35352;94425.5;;;;
2022/04/21 05:39:38;;;;;;;10.65;6;;;;;;;3.62;45.35352;94425.5;;;;
2022/04/21 05:40:39;;;;;;;10.65;6;;;;;;;3.62;45.35352;94425.5;;;;
2022/04/21 05:41:40;;;;;;;10.65;6;;;;;;;3.62;45.35352;94425.5;;;;
2022/04/21 05:42:42;;;;;;;10.65;6;;;;;;;3.62;45.35352;94425.5;;;;
2022/04/21 05:43:46;;;;;;;10.65;6;;;;;;;3.62;45.35352;94425.5;;;;
2022/04/21 05:44:48;;;;;;;10.65;6;;;;;;;3.62;45.35352;94425.5;;;;
2022/04/21 05:45:50;;;;;;;10.65;6;;;;;;;3.62;45.35352;94425.5;;;;
2022/04/21 05:46:51;;;;;;;10.65;6;;;;;;;3.62;45.35352;94425.5;;;;
2022/04/21 05:47:52;;;;;;;10.65;6;;;;;;;3.62;45.35352;94425.5;;;;
2022/04/21 05:48:54;;;;;;;11.8;6.299999;;;;;;;4.28;45.26367;94433.47;;;;
2022/04/21 05:49:55;;;;;;;11.8;6.299999;;;;;;;4.28;45.26367;94433.47;;;;
2022/04/21 05:50:56;;;;;;;11.8;6.299999;;;;;;;4.28;45.26367;94433.47;;;;
2022/04/21 05:51:57;;;;;;;11.8;6.299999;;;;;;;4.28;45.26367;94433.47;;;;
2022/04/21 05:53:00;;;;;;;11.8;6.299999;;;;;;;4.28;45.26367;94433.47;;;;
2022/04/21 05:54:02;;;;;;;11.8;6.299999;;;;;;;4.28;45.26367;94433.47;;;;
2022/04/21 05:55:05;;;;;;;11.8;6.299999;;;;;;;4.28;45.26367;94433.47;;;;
2022/04/21 05:56:07;;;;;;;11.8;6.299999;;;;;;;4.28;45.26367;94433.47;;;;
2022/04/21 05:57:09;;;;;;;11.8;6.299999;;;;;;;4.28;45.26367;94433.47;;;;
2022/04/21 05:58:09;;;;;;;11.8;6.299999;;;;;;;4.28;45.26367;94433.47;;;;
2022/04/21 05:59:10;;;;;;;10.6;6.75;;;;;;;4.94;45.1416;94426.45;;;;
2022/04/21 06:00:11;;;;;;;10.6;6.75;;;;;;;4.94;45.1416;94426.45;;;;
2022/04/21 06:01:13;;;;;;;10.6;6.75;;;;;;;4.94;45.1416;94426.45;;;;
2022/04/21 06:02:13;;;;;;;10.6;6.75;;;;;;;4.94;45.1416;94426.45;;;;
2022/04/21 06:03:14;;;;;;;10.6;6.75;;;;;;;4.94;45.1416;94426.45;;;;
2022/04/21 06:04:15;;;;;;;10.6;6.75;;;;;;;4.94;45.1416;94426.45;;;;
2022/04/21 06:05:15;;;;;;;10.6;6.75;;;;;;;4.94;45.1416;94426.45;;;;
2022/04/21 06:06:16;;;;;;;10.6;6.75;;;;;;;4.94;45.1416;94426.45;;;;
2022/04/21 06:07:16;;;;;;;10.6;6.75;;;;;;;4.94;45.1416;94426.45;;;;
2022/04/21 06:08:17;;;;;;;10.6;6.75;;;;;;;4.94;45.1416;94426.45;;;;
2022/04/21 06:09:17;;;;;;;10.6;6.75;;;;;;;4.94;45.1416;94426.45;;;;
2022/04/21 06:10:18;;;;;;;8.6;6.95;;;;;;;5.69;44.9541;94426.86;;;;
2022/04/21 06:11:18;;;;;;;8.6;6.95;;;;;;;5.69;44.9541;94426.86;;;;
2022/04/21 06:12:19;;;;;;;8.6;6.95;;;;;;;5.69;44.9541;94426.86;;;;
2022/04/21 06:13:20;;;;;;;8.6;6.95;;;;;;;5.69;44.9541;94426.86;;;;
2022/04/21 06:14:21;;;;;;;8.6;6.95;;;;;;;5.69;44.9541;94426.86;;;;
2022/04/21 06:15:21;;;;;;;8.6;6.95;;;;;;;5.69;44.9541;94426.86;;;;
2022/04/21 06:16:22;;;;;;;8.6;6.95;;;;;;;5.69;44.9541;94426.86;;;;
2022/04/21 06:17:23;;;;;;;8.6;6.95;;;;;;;5.69;44.9541;94426.86;;;;
2022/04/21 06:18:24;;;;;;;8.6;6.95;;;;;;;5.69;44.9541;94426.86;;;;
2022/04/21 06:19:25;;;;;;;8.6;6.95;;;;;;;5.69;44.9541;94426.86;;;;
2022/04/21 06:20:25;;;;;;;12.75;7.45;;;;;;;6.5;44.64355;94424;;;;
2022/04/21 06:21:27;;;;;;;12.75;7.45;;;;;;;6.5;44.64355;94424;;;;
2022/04/21 06:22:28;;;;;;;12.75;7.45;;;;;;;6.5;44.64355;94424;;;;